Time;durP1;ratioP1;P1;durP2;ratioP2;P2;SDS_P1;SDS_P2;PMS_P1;PMS_P2;Temp;Humidity;BMP_temperature;BMP_pressure;BME280_temperature;BME280_humidity;BME280_pressure;Samples;Min_cycle;Max_cycle;Signal;HPM_P1;HPM_P2
2024/01/28 00:01:36;;;;;;;824.00;739.15;;;26.80;99.90;;;;;;5034357;28;20103;-66
2024/01/28 00:04:02;;;;;;;873.25;783.60;;;26.80;99.90;;;;;;5034402;28;20396;-67
2024/01/28 00:06:29;;;;;;;812.38;731.78;;;26.80;99.90;;;;;;5034498;28;20017;-67
2024/01/28 00:08:55;;;;;;;802.88;723.20;;;26.90;99.90;;;;;;5033214;28;20388;-66
2024/01/28 00:11:22;;;;;;;785.50;706.88;;;26.90;99.90;;;;;;5034583;28;20286;-66
2024/01/28 00:13:48;;;;;;;792.25;713.67;;;26.90;99.90;;;;;;5034308;28;20017;-67
2024/01/28 00:16:17;;;;;;;788.08;712.22;;;27.00;99.90;;;;;;5034167;28;20495;-67
2024/01/28 00:18:43;;;;;;;826.22;744.22;;;27.00;99.90;;;;;;5034142;28;20025;-67
2024/01/28 00:21:10;;;;;;;802.42;724.47;;;27.00;99.90;;;;;;5034147;28;20083;-66
2024/01/28 00:23:36;;;;;;;784.83;706.50;;;27.10;99.90;;;;;;5033982;28;20098;-66
2024/01/28 00:26:04;;;;;;;792.00;715.25;;;27.10;99.90;;;;;;5033299;28;20032;-66
2024/01/28 00:28:30;;;;;;;776.00;702.20;;;27.10;99.90;;;;;;5033004;28;20371;-66
2024/01/28 00:30:57;;;;;;;770.20;695.55;;;27.10;99.90;;;;;;5032939;28;20545;-66
2024/01/28 00:33:23;;;;;;;708.72;642.70;;;27.10;99.90;;;;;;5032739;28;20029;-66
2024/01/28 00:35:50;;;;;;;745.30;675.05;;;27.10;99.90;;;;;;5033179;28;20029;-66
2024/01/28 00:38:16;;;;;;;741.97;672.92;;;27.20;99.90;;;;;;5033121;28;20033;-66
2024/01/28 00:40:43;;;;;;;736.70;666.90;;;27.20;99.90;;;;;;5033836;28;20029;-67
2024/01/28 00:43:09;;;;;;;701.53;635.80;;;27.20;99.90;;;;;;5052726;28;20021;-66
2024/01/28 00:45:39;;;;;;;716.42;650.10;;;27.20;99.90;;;;;;5052534;28;20060;-67
2024/01/28 00:48:05;;;;;;;674.53;610.85;;;27.20;99.90;;;;;;5052405;28;20074;-66
2024/01/28 00:50:32;;;;;;;727.90;659.33;;;27.10;99.90;;;;;;5052315;28;20045;-66
2024/01/28 00:52:58;;;;;;;708.35;643.13;;;27.10;99.90;;;;;;5052629;28;20025;-66
2024/01/28 00:55:25;;;;;;;706.00;641.17;;;27.10;99.90;;;;;;5052507;28;20501;-66
2024/01/28 00:57:51;;;;;;;714.20;646.90;;;27.10;99.90;;;;;;5052444;28;20059;-66
2024/01/28 01:00:18;;;;;;;719.10;650.75;;;27.10;99.90;;;;;;5052619;28;20037;-66
2024/01/28 01:02:45;;;;;;;729.83;661.78;;;27.20;99.90;;;;;;5044197;28;20029;-66
2024/01/28 01:05:11;;;;;;;697.30;633.10;;;27.20;99.90;;;;;;5032935;28;20029;-66
2024/01/28 01:07:38;;;;;;;676.58;614.47;;;27.20;99.90;;;;;;5047446;28;20090;-67
2024/01/28 01:10:05;;;;;;;702.88;638.15;;;27.30;99.90;;;;;;5052245;28;20021;-65
2024/01/28 01:12:33;;;;;;;616.22;560.15;;;27.30;99.90;;;;;;5048708;28;20413;-65
2024/01/28 01:15:00;;;;;;;618.50;564.08;;;27.30;99.90;;;;;;5032391;28;20099;-66
2024/01/28 01:17:26;;;;;;;671.90;611.40;;;27.40;99.90;;;;;;5032716;28;20028;-66
2024/01/28 01:19:53;;;;;;;622.05;567.80;;;27.40;99.90;;;;;;5035985;28;20022;-65
2024/01/28 01:22:19;;;;;;;535.17;490.10;;;27.40;99.90;;;;;;5047169;28;20521;-65
2024/01/28 01:24:46;;;;;;;591.70;541.05;;;27.40;99.90;;;;;;5052041;28;20036;-66
2024/01/28 01:27:13;;;;;;;578.65;528.08;;;27.40;99.90;;;;;;5052333;28;20028;-66
2024/01/28 01:29:39;;;;;;;480.23;440.85;;;27.40;99.90;;;;;;5035300;28;20125;-67
2024/01/28 01:32:06;;;;;;;496.35;454.95;;;27.50;99.90;;;;;;5039655;28;20033;-67
2024/01/28 01:34:32;;;;;;;589.10;537.50;;;27.50;99.90;;;;;;5042124;28;20021;-66
2024/01/28 01:36:59;;;;;;;514.40;471.20;;;27.50;99.90;;;;;;5040471;28;20535;-66
2024/01/28 01:39:25;;;;;;;436.52;399.58;;;27.60;99.90;;;;;;5041334;28;20037;-66
2024/01/28 01:41:52;;;;;;;530.85;484.45;;;27.70;99.90;;;;;;5041931;28;20033;-66
2024/01/28 01:44:20;;;;;;;463.25;421.52;;;27.80;99.90;;;;;;5040039;28;20160;-66
2024/01/28 01:46:46;;;;;;;536.60;490.48;;;27.80;99.90;;;;;;5041133;28;20032;-65
2024/01/28 01:49:13;;;;;;;477.25;435.50;;;27.80;99.90;;;;;;5041914;28;20040;-66
2024/01/28 01:51:41;;;;;;;519.47;475.30;;;27.90;99.90;;;;;;5039943;28;20057;-66
2024/01/28 01:54:07;;;;;;;472.92;432.30;;;27.90;99.90;;;;;;5041049;28;20036;-67
2024/01/28 01:56:35;;;;;;;457.52;417.02;;;27.90;99.90;;;;;;5031931;28;20121;-67
2024/01/28 01:59:04;;;;;;;487.65;444.77;;;27.90;99.90;;;;;;5031824;28;20053;-67
2024/01/28 02:01:32;;;;;;;466.25;425.38;;;27.90;99.90;;;;;;5032046;28;20271;-67
2024/01/28 02:03:59;;;;;;;485.05;442.30;;;28.00;99.90;;;;;;5032266;28;20068;-66
2024/01/28 02:06:28;;;;;;;473.30;432.10;;;28.00;99.90;;;;;;5031928;28;20520;-67
2024/01/28 02:08:55;;;;;;;374.02;342.58;;;28.00;99.90;;;;;;5034536;28;20041;-67
2024/01/28 02:11:23;;;;;;;378.58;345.88;;;28.00;99.90;;;;;;5045139;28;20029;-66
2024/01/28 02:13:49;;;;;;;412.23;376.70;;;28.00;99.90;;;;;;5052241;28;20496;-67
2024/01/28 02:16:16;;;;;;;349.02;320.70;;;28.10;99.90;;;;;;5055359;28;20037;-66
2024/01/28 02:18:42;;;;;;;248.50;230.00;;;28.20;99.90;;;;;;5055328;28;20029;-66
2024/01/28 02:21:09;;;;;;;248.63;229.77;;;28.20;99.90;;;;;;5055419;28;20029;-66
2024/01/28 02:23:36;;;;;;;220.93;204.00;;;28.30;99.90;;;;;;5055304;28;20400;-66
2024/01/28 02:26:02;;;;;;;258.88;239.40;;;28.30;99.90;;;;;;5055251;28;20078;-67
2024/01/28 02:28:29;;;;;;;226.10;209.02;;;28.30;99.90;;;;;;5055276;28;20393;-67
2024/01/28 02:30:55;;;;;;;213.13;197.00;;;28.40;99.90;;;;;;5055151;28;20040;-67
2024/01/28 02:33:22;;;;;;;239.05;221.88;;;28.50;99.90;;;;;;5055072;28;20047;-66
2024/01/28 02:35:48;;;;;;;211.30;195.82;;;28.50;99.90;;;;;;5055227;28;20076;-67
2024/01/28 02:38:15;;;;;;;227.30;210.85;;;28.50;99.90;;;;;;5055394;28;20021;-67
2024/01/28 02:40:41;;;;;;;199.20;183.80;;;28.50;99.90;;;;;;5054973;28;20029;-66
2024/01/28 02:43:08;;;;;;;253.73;235.40;;;28.50;99.90;;;;;;5055018;28;20095;-67
2024/01/28 02:45:34;;;;;;;244.85;225.25;;;28.50;99.90;;;;;;5054884;28;20072;-66
2024/01/28 02:48:01;;;;;;;297.05;271.92;;;28.50;99.90;;;;;;5054715;28;20032;-67
2024/01/28 02:50:28;;;;;;;239.60;222.45;;;28.70;99.90;;;;;;5054678;28;20128;-66
2024/01/28 02:52:54;;;;;;;229.30;211.90;;;28.70;99.90;;;;;;5054853;28;20041;-67
2024/01/28 02:55:21;;;;;;;188.77;173.85;;;28.60;99.90;;;;;;5046341;28;20104;-65
2024/01/28 02:57:47;;;;;;;165.07;152.38;;;28.60;99.90;;;;;;5042930;28;20428;-67
2024/01/28 03:00:14;;;;;;;192.70;178.23;;;28.60;99.90;;;;;;5042899;28;20017;-67
2024/01/28 03:02:41;;;;;;;251.32;229.80;;;28.60;99.90;;;;;;5050608;28;20025;-67
2024/01/28 03:05:10;;;;;;;196.02;180.35;;;28.70;99.90;;;;;;5048134;28;20037;-66
2024/01/28 03:07:37;;;;;;;116.72;107.28;;;28.80;99.90;;;;;;5043051;28;20036;-66
2024/01/28 03:10:04;;;;;;;122.30;112.88;;;28.90;99.90;;;;;;5043486;28;20044;-66
2024/01/28 03:12:31;;;;;;;110.18;101.18;;;29.00;99.90;;;;;;5044875;28;20067;-67
2024/01/28 03:14:58;;;;;;;107.53;98.15;;;29.00;99.90;;;;;;5044079;28;20474;-67
2024/01/28 03:17:24;;;;;;;112.28;103.10;;;28.90;99.90;;;;;;5044027;28;20095;-67
2024/01/28 03:19:51;;;;;;;94.00;86.95;;;29.00;99.90;;;;;;5045527;28;20493;-66
2024/01/28 03:22:17;;;;;;;105.68;97.95;;;29.10;99.90;;;;;;5043978;28;20037;-66
2024/01/28 03:24:44;;;;;;;95.63;88.18;;;29.20;99.90;;;;;;5055391;22;20132;-65
2024/01/28 03:27:10;;;;;;;97.75;90.13;;;29.30;99.90;;;;;;5034366;28;20060;-65
2024/01/28 03:29:37;;;;;;;106.78;98.25;;;29.30;99.90;;;;;;5034387;28;20492;-66
2024/01/28 03:32:03;;;;;;;108.03;99.68;;;29.40;99.90;;;;;;5034123;28;20544;-66
2024/01/28 03:34:30;;;;;;;125.93;114.97;;;29.40;99.90;;;;;;5034081;28;20017;-64
2024/01/28 03:36:56;;;;;;;137.02;125.47;;;29.40;99.90;;;;;;5034102;28;20414;-65
2024/01/28 03:39:23;;;;;;;111.07;102.30;;;29.50;99.90;;;;;;5033992;28;20032;-64
2024/01/28 03:41:49;;;;;;;123.50;114.18;;;29.60;99.90;;;;;;5033849;28;20037;-65
2024/01/28 03:44:22;;;;;;;132.98;121.85;;;29.60;99.90;;;;;;5033930;28;20025;-64
2024/01/28 03:46:48;;;;;;;121.55;111.90;;;29.60;99.90;;;;;;5033825;28;20029;-65
2024/01/28 03:49:15;;;;;;;135.32;125.90;;;29.70;99.90;;;;;;5033722;28;20036;-66
2024/01/28 03:51:41;;;;;;;151.38;140.60;;;29.70;99.90;;;;;;5033764;28;20351;-65
2024/01/28 03:54:08;;;;;;;92.43;85.00;;;29.80;99.90;;;;;;5033627;28;20032;-65
2024/01/28 03:56:34;;;;;;;124.10;115.05;;;29.80;99.90;;;;;;5033261;28;20017;-66
2024/01/28 03:59:01;;;;;;;100.72;92.93;;;29.80;99.90;;;;;;5033233;28;20030;-66
2024/01/28 04:01:36;;;;;;;145.50;135.07;;;29.70;99.90;;;;;;5033260;28;20025;-65
2024/01/28 04:04:03;;;;;;;122.75;113.78;;;29.80;99.90;;;;;;5033063;28;20047;-66
2024/01/28 04:06:30;;;;;;;132.68;123.63;;;29.90;99.90;;;;;;5033086;28;20033;-65
2024/01/28 04:08:56;;;;;;;140.45;130.98;;;29.80;99.90;;;;;;5032948;28;20028;-64
2024/01/28 04:11:25;;;;;;;124.85;116.30;;;29.80;99.90;;;;;;5032931;28;20470;-66
2024/01/28 04:13:53;;;;;;;112.90;104.68;;;29.80;99.90;;;;;;5032678;28;20025;-66
2024/01/28 04:16:22;;;;;;;118.93;110.18;;;29.90;99.90;;;;;;5032862;28;20030;-66
2024/01/28 04:18:50;;;;;;;155.70;144.63;;;30.00;99.90;;;;;;5033027;28;20532;-66
2024/01/28 04:21:17;;;;;;;135.27;125.53;;;30.00;99.90;;;;;;5032775;28;20029;-65
2024/01/28 04:23:46;;;;;;;127.82;118.28;;;30.00;99.90;;;;;;5032725;28;20518;-65
2024/01/28 04:26:13;;;;;;;172.55;160.32;;;30.00;99.90;;;;;;5032939;28;20029;-65
2024/01/28 04:28:40;;;;;;;145.05;134.48;;;30.10;99.90;;;;;;5033092;28;20479;-65
2024/01/28 04:31:07;;;;;;;124.28;115.60;;;30.10;99.90;;;;;;5032360;28;20116;-66
2024/01/28 04:33:34;;;;;;;142.98;132.45;;;30.30;99.90;;;;;;5033737;28;20477;-66
2024/01/28 04:36:01;;;;;;;127.50;118.85;;;30.30;99.90;;;;;;5033905;28;20022;-66
2024/01/28 04:38:28;;;;;;;115.43;107.43;;;30.40;99.90;;;;;;5033248;28;20021;-65
2024/01/28 04:40:54;;;;;;;128.48;119.40;;;30.40;99.90;;;;;;5033726;28;20290;-66
2024/01/28 04:43:21;;;;;;;88.57;81.85;;;30.40;99.90;;;;;;5034428;28;20052;-66
2024/01/28 04:45:47;;;;;;;130.07;121.15;;;30.30;99.90;;;;;;5034630;28;20022;-66
2024/01/28 04:48:14;;;;;;;121.22;112.30;;;30.30;99.90;;;;;;5035161;28;20528;-66
2024/01/28 04:50:40;;;;;;;123.43;114.78;;;30.40;99.90;;;;;;5034824;28;20064;-65
2024/01/28 04:53:07;;;;;;;115.85;107.88;;;30.40;99.90;;;;;;5034374;28;20067;-66
2024/01/28 04:55:34;;;;;;;113.35;104.95;;;30.40;99.90;;;;;;5034172;28;20026;-66
2024/01/28 04:58:00;;;;;;;126.22;117.10;;;30.60;99.90;;;;;;5034543;28;20037;-66
2024/01/28 05:00:27;;;;;;;94.50;88.15;;;30.60;99.90;;;;;;5034292;28;20021;-66
2024/01/28 05:02:55;;;;;;;88.00;81.32;;;30.60;99.90;;;;;;5034397;28;20047;-66
2024/01/28 05:05:24;;;;;;;116.80;108.60;;;30.60;99.90;;;;;;5034272;28;20036;-66
2024/01/28 05:07:51;;;;;;;97.00;90.35;;;30.70;99.90;;;;;;5063812;23;20056;-66
2024/01/28 05:10:17;;;;;;;83.28;77.05;;;30.80;99.90;;;;;;5054030;28;20037;-66
2024/01/28 05:12:47;;;;;;;103.22;96.05;;;31.00;99.90;;;;;;5054250;28;20021;-66
2024/01/28 05:15:16;;;;;;;108.22;100.70;;;31.10;99.90;;;;;;5053617;28;20021;-66
2024/01/28 05:17:45;;;;;;;104.97;98.03;;;31.20;99.90;;;;;;5054218;28;20067;-65
2024/01/28 05:20:14;;;;;;;96.75;90.07;;;31.20;99.90;;;;;;5053899;28;20025;-66
2024/01/28 05:22:41;;;;;;;118.00;110.07;;;31.30;99.90;;;;;;5052889;28;20032;-65
2024/01/28 05:25:09;;;;;;;116.85;108.28;;;31.40;99.90;;;;;;5053197;28;20532;-65
2024/01/28 05:27:37;;;;;;;94.50;87.65;;;31.40;99.90;;;;;;5053083;28;20112;-65
2024/01/28 05:30:04;;;;;;;106.75;99.22;;;31.50;99.90;;;;;;5052982;28;20024;-66
2024/01/28 05:32:30;;;;;;;103.88;96.85;;;31.50;99.90;;;;;;5059254;28;20036;-66
2024/01/28 05:34:57;;;;;;;127.43;118.82;;;31.60;99.90;;;;;;5073389;28;20028;-65
2024/01/28 05:37:24;;;;;;;101.70;94.07;;;31.70;99.90;;;;;;5073345;28;20385;-66
2024/01/28 05:39:50;;;;;;;137.77;128.68;;;31.70;99.90;;;;;;5073010;28;20020;-66
2024/01/28 05:42:17;;;;;;;96.15;88.93;;;31.70;99.90;;;;;;5073430;28;20377;-66
2024/01/28 05:44:43;;;;;;;92.15;85.55;;;31.80;99.90;;;;;;5072728;28;20025;-66
2024/01/28 05:47:10;;;;;;;98.13;91.20;;;31.80;99.90;;;;;;5073389;28;20016;-65
2024/01/28 05:49:36;;;;;;;99.80;92.82;;;31.70;99.90;;;;;;5074680;28;20058;-65
2024/01/28 05:52:03;;;;;;;99.40;92.47;;;31.80;99.90;;;;;;5050679;28;20037;-65
2024/01/28 05:54:30;;;;;;;122.90;113.03;;;31.90;99.90;;;;;;5044095;28;20032;-65
2024/01/28 05:56:57;;;;;;;107.05;99.47;;;31.90;99.90;;;;;;5037315;28;20421;-65
2024/01/28 05:59:23;;;;;;;78.30;72.68;;;31.90;99.90;;;;;;5047294;28;20076;-65
2024/01/28 06:01:50;;;;;;;79.35;73.07;;;31.80;99.90;;;;;;5057571;28;20029;-65
2024/01/28 06:04:16;;;;;;;86.05;79.05;;;31.70;99.90;;;;;;5057536;28;20031;-65
2024/01/28 06:06:43;;;;;;;84.75;77.22;;;31.70;99.90;;;;;;5057300;28;20051;-65
2024/01/28 06:09:10;;;;;;;56.10;51.92;;;31.60;99.90;;;;;;5057493;28;20025;-64
2024/01/28 06:11:37;;;;;;;55.25;50.95;;;31.70;99.90;;;;;;5057374;28;20024;-65
2024/01/28 06:14:03;;;;;;;49.65;46.03;;;31.70;99.90;;;;;;5056519;28;20028;-66
2024/01/28 06:16:30;;;;;;;39.28;36.00;;;31.70;99.90;;;;;;5056016;28;20025;-64
2024/01/28 06:18:57;;;;;;;48.83;45.03;;;31.80;99.90;;;;;;5056269;28;20163;-61
2024/01/28 06:21:24;;;;;;;46.60;42.63;;;31.90;99.90;;;;;;5056866;28;20025;-61
2024/01/28 06:23:51;;;;;;;32.83;30.05;;;31.90;99.90;;;;;;5056536;28;20053;-62
2024/01/28 06:26:18;;;;;;;25.95;23.67;;;31.90;99.90;;;;;;5056500;28;20139;-62
2024/01/28 06:28:47;;;;;;;20.40;18.58;;;32.00;99.90;;;;;;5056026;28;20035;-63
2024/01/28 06:31:14;;;;;;;55.97;48.53;;;32.00;99.90;;;;;;5056074;28;20052;-62
2024/01/28 06:33:41;;;;;;;58.28;48.85;;;32.00;99.90;;;;;;5056157;28;20035;-63
2024/01/28 06:36:08;;;;;;;21.98;20.05;;;32.10;99.90;;;;;;5056102;28;20021;-62
2024/01/28 06:38:34;;;;;;;30.70;25.38;;;32.20;99.90;;;;;;5056156;28;20032;-63
2024/01/28 06:41:01;;;;;;;37.45;33.17;;;32.30;99.90;;;;;;5056122;28;20017;-63
2024/01/28 06:43:27;;;;;;;24.88;22.17;;;32.20;99.90;;;;;;5053152;28;20036;-63
2024/01/28 06:45:54;;;;;;;21.00;18.23;;;32.20;99.90;;;;;;5051057;28;20029;-62
2024/01/28 06:48:21;;;;;;;20.25;18.23;;;32.10;99.90;;;;;;5055529;28;20036;-64
2024/01/28 06:50:48;;;;;;;21.70;19.42;;;32.00;99.90;;;;;;5055488;28;20089;-61
2024/01/28 06:53:14;;;;;;;23.65;19.35;;;31.90;99.90;;;;;;5055535;28;20013;-62
2024/01/28 06:55:40;;;;;;;24.38;20.02;;;31.90;99.90;;;;;;5055977;28;20474;-62
2024/01/28 06:58:07;;;;;;;23.45;21.17;;;32.00;99.90;;;;;;5055999;28;20398;-65
2024/01/28 07:00:34;;;;;;;26.42;22.70;;;32.10;99.90;;;;;;5054484;28;20426;-66
2024/01/28 07:03:00;;;;;;;28.88;25.80;;;32.20;99.90;;;;;;5043889;28;20021;-66
2024/01/28 07:05:28;;;;;;;27.25;24.50;;;32.20;99.90;;;;;;5044614;28;20033;-65
2024/01/28 07:07:54;;;;;;;26.92;21.45;;;32.20;99.90;;;;;;5035398;28;20088;-65
2024/01/28 07:10:21;;;;;;;30.30;26.65;;;32.20;99.90;;;;;;5035497;28;20029;-66
2024/01/28 07:12:47;;;;;;;27.50;23.52;;;32.30;99.90;;;;;;5035615;28;20456;-66
2024/01/28 07:15:14;;;;;;;27.15;23.90;;;32.30;99.90;;;;;;5035474;28;20021;-65
2024/01/28 07:17:41;;;;;;;26.30;20.77;;;32.40;99.90;;;;;;5034343;28;20497;-66
2024/01/28 07:20:08;;;;;;;23.88;21.38;;;32.50;99.90;;;;;;5035898;28;20029;-66
2024/01/28 07:22:35;;;;;;;28.88;25.88;;;32.60;99.90;;;;;;5035370;28;20029;-65
2024/01/28 07:25:02;;;;;;;32.45;25.75;;;32.50;99.90;;;;;;5035495;28;20025;-65
2024/01/28 07:27:29;;;;;;;26.98;24.33;;;32.50;99.90;;;;;;5035433;28;20034;-66
2024/01/28 07:29:55;;;;;;;28.73;26.20;;;32.50;99.90;;;;;;5035537;28;20033;-65
2024/01/28 07:32:22;;;;;;;26.33;23.17;;;32.50;99.90;;;;;;5035393;28;20061;-65
2024/01/28 07:34:48;;;;;;;28.55;25.77;;;32.50;99.90;;;;;;5035425;28;20017;-65
2024/01/28 07:37:15;;;;;;;26.70;23.83;;;32.60;99.90;;;;;;5035286;28;20022;-65
2024/01/28 07:39:41;;;;;;;25.02;21.17;;;32.60;99.90;;;;;;5074487;28;20025;-65
2024/01/28 07:42:08;;;;;;;21.52;19.55;;;32.50;99.90;;;;;;5074905;28;20102;-66
2024/01/28 07:44:34;;;;;;;19.15;17.10;;;32.50;99.90;;;;;;5075002;28;20031;-65
2024/01/28 07:47:02;;;;;;;21.73;18.98;;;32.60;99.90;;;;;;5074803;28;20028;-66
2024/01/28 07:49:29;;;;;;;20.17;18.27;;;32.60;99.90;;;;;;5074691;28;20111;-65
2024/01/28 07:51:55;;;;;;;21.17;19.00;;;32.70;99.90;;;;;;5074703;28;20056;-65
2024/01/28 07:54:22;;;;;;;21.90;19.70;;;32.70;99.90;;;;;;5074581;28;20043;-65
2024/01/28 07:56:48;;;;;;;19.73;17.75;;;32.70;99.90;;;;;;5074867;28;20016;-66
2024/01/28 07:59:15;;;;;;;19.77;17.83;;;32.60;99.90;;;;;;5074522;28;20070;-65
2024/01/28 08:01:41;;;;;;;18.40;16.65;;;32.50;99.90;;;;;;5074778;28;20024;-66
2024/01/28 08:04:08;;;;;;;17.95;16.10;;;32.50;99.90;;;;;;5074787;28;20100;-65
2024/01/28 08:06:34;;;;;;;19.17;17.13;;;32.50;99.90;;;;;;5074367;28;20028;-65
2024/01/28 08:09:01;;;;;;;22.02;18.63;;;32.50;99.90;;;;;;5074158;28;20093;-65
2024/01/28 08:11:27;;;;;;;21.42;19.27;;;32.60;99.90;;;;;;5073624;28;20488;-66
2024/01/28 08:13:54;;;;;;;22.20;19.50;;;32.60;99.90;;;;;;5074385;28;20044;-66
2024/01/28 08:16:20;;;;;;;44.38;39.72;;;32.50;99.90;;;;;;5074044;28;20059;-65
2024/01/28 08:18:47;;;;;;;33.03;30.08;;;32.30;99.90;;;;;;5074170;28;20052;-64
2024/01/28 08:21:14;;;;;;;39.15;36.05;;;32.10;99.90;;;;;;5060875;28;20036;-65
2024/01/28 08:23:40;;;;;;;57.25;53.08;;;31.90;99.90;;;;;;5054222;28;20461;-65
2024/01/28 08:26:08;;;;;;;75.20;69.93;;;31.70;99.90;;;;;;5054286;28;20028;-65
2024/01/28 08:28:34;;;;;;;94.43;88.22;;;31.50;99.90;;;;;;5054197;28;20028;-65
2024/01/28 08:31:01;;;;;;;116.82;109.28;;;31.20;99.90;;;;;;5053752;28;20025;-65
2024/01/28 08:33:27;;;;;;;116.32;108.38;;;31.00;99.90;;;;;;5050418;28;20053;-65
2024/01/28 08:35:53;;;;;;;120.63;112.78;;;30.90;99.90;;;;;;5042721;28;20029;-66
2024/01/28 08:38:20;;;;;;;121.70;113.60;;;30.90;99.90;;;;;;5033860;28;20101;-65
2024/01/28 08:40:46;;;;;;;110.78;102.85;;;31.00;99.90;;;;;;5033704;28;20037;-65
2024/01/28 08:43:13;;;;;;;130.73;121.90;;;31.00;99.90;;;;;;5033921;28;20025;-65
2024/01/28 08:45:39;;;;;;;130.75;121.78;;;31.00;99.90;;;;;;5033766;28;20026;-65
2024/01/28 08:48:06;;;;;;;148.95;138.73;;;31.00;99.90;;;;;;5033843;28;20421;-66
2024/01/28 08:50:33;;;;;;;166.32;155.68;;;31.10;99.90;;;;;;5033647;28;20135;-65
2024/01/28 08:52:59;;;;;;;181.13;169.20;;;31.00;99.90;;;;;;5033578;28;20100;-65
2024/01/28 08:55:26;;;;;;;194.00;181.18;;;31.10;99.90;;;;;;5033781;28;20014;-66
2024/01/28 08:57:52;;;;;;;210.43;196.63;;;31.10;99.90;;;;;;5033890;28;20018;-65
2024/01/28 09:00:19;;;;;;;210.55;196.77;;;31.10;99.90;;;;;;5033683;28;20065;-65
2024/01/28 09:02:46;;;;;;;221.95;207.55;;;31.10;99.90;;;;;;5039312;28;20061;-65
2024/01/28 09:05:12;;;;;;;225.13;210.45;;;31.10;99.90;;;;;;5053725;28;20104;-66
2024/01/28 09:07:41;;;;;;;220.48;206.23;;;31.10;99.90;;;;;;5053391;28;20082;-66
2024/01/28 09:10:08;;;;;;;224.00;210.07;;;31.00;99.90;;;;;;5052954;28;20504;-65
2024/01/28 09:12:35;;;;;;;232.40;217.45;;;31.10;99.90;;;;;;5052754;28;20403;-65
2024/01/28 09:15:01;;;;;;;223.15;208.88;;;31.20;99.90;;;;;;5052633;28;20013;-65
2024/01/28 09:17:28;;;;;;;211.32;197.95;;;31.30;99.90;;;;;;5052984;28;20025;-65
2024/01/28 09:19:56;;;;;;;211.80;198.48;;;31.40;99.90;;;;;;5052518;28;20508;-65
2024/01/28 09:22:22;;;;;;;223.15;208.05;;;31.40;99.90;;;;;;5052597;28;20101;-66
2024/01/28 09:24:49;;;;;;;211.88;198.48;;;31.40;99.90;;;;;;5052209;28;20437;-66
2024/01/28 09:27:17;;;;;;;199.25;186.48;;;31.40;99.90;;;;;;5052641;28;20103;-66
2024/01/28 09:29:44;;;;;;;210.05;196.65;;;31.30;99.90;;;;;;5053369;28;20025;-66
2024/01/28 09:32:10;;;;;;;207.63;194.75;;;31.30;99.90;;;;;;5052721;28;20064;-66
2024/01/28 09:34:37;;;;;;;190.23;178.27;;;31.40;99.90;;;;;;5052347;28;20033;-66
2024/01/28 09:37:03;;;;;;;171.90;160.35;;;31.40;99.90;;;;;;5049528;28;20382;-66
2024/01/28 09:39:31;;;;;;;184.45;172.52;;;31.30;99.90;;;;;;5032875;28;20036;-66
2024/01/28 09:42:10;;;;;;;191.52;179.25;;;31.30;99.90;;;;;;5052051;28;20036;-66
2024/01/28 09:44:38;;;;;;;170.20;159.20;;;31.30;99.90;;;;;;5052298;28;20033;-67
2024/01/28 09:47:06;;;;;;;162.63;152.40;;;31.30;99.90;;;;;;5051512;28;20029;-66
2024/01/28 09:49:44;;;;;;;147.18;138.00;;;31.30;99.90;;;;;;5051562;28;20083;-66
2024/01/28 09:52:11;;;;;;;173.25;162.15;;;31.20;99.90;;;;;;5052399;28;20096;-66
2024/01/28 09:54:39;;;;;;;190.25;177.85;;;31.20;99.90;;;;;;5052562;28;20432;-66
2024/01/28 09:57:07;;;;;;;179.77;167.32;;;31.30;99.90;;;;;;5052714;28;20025;-66
2024/01/28 09:59:35;;;;;;;175.48;162.85;;;31.20;99.90;;;;;;5051578;28;20406;-66
2024/01/28 10:02:03;;;;;;;243.43;221.10;;;31.20;99.90;;;;;;5050323;28;20060;-66
2024/01/28 10:04:31;;;;;;;198.75;184.45;;;31.20;99.90;;;;;;5054139;28;20033;-66
2024/01/28 10:07:00;;;;;;;194.38;179.73;;;31.20;99.90;;;;;;5053619;28;20140;-66
2024/01/28 10:09:30;;;;;;;185.65;172.73;;;31.20;99.90;;;;;;5049551;28;20053;-65
2024/01/28 10:11:59;;;;;;;184.85;170.45;;;31.20;99.90;;;;;;5044277;28;20021;-65
2024/01/28 10:14:27;;;;;;;204.93;188.85;;;31.20;99.90;;;;;;5043962;28;20025;-66
2024/01/28 10:16:54;;;;;;;240.38;220.57;;;31.20;99.90;;;;;;5043150;28;20025;-66
2024/01/28 10:19:21;;;;;;;232.10;212.88;;;31.30;99.90;;;;;;5045546;28;21425;-67
2024/01/28 10:21:48;;;;;;;194.32;181.40;;;31.30;99.90;;;;;;5043715;28;20492;-67
2024/01/28 10:24:17;;;;;;;207.77;192.55;;;31.20;99.90;;;;;;5047905;28;20069;-67
2024/01/28 10:26:43;;;;;;;187.50;174.95;;;31.20;99.90;;;;;;5045584;28;20029;-67
2024/01/28 10:29:12;;;;;;;199.95;185.90;;;31.10;99.90;;;;;;5046303;28;20502;-70
2024/01/28 10:31:39;;;;;;;180.98;168.45;;;31.10;99.90;;;;;;5043024;28;20029;-68
2024/01/28 10:34:06;;;;;;;199.35;184.73;;;31.10;99.90;;;;;;5048645;28;20497;-67
2024/01/28 10:36:36;;;;;;;203.50;188.68;;;31.00;99.90;;;;;;5053895;28;20044;-69
2024/01/28 10:39:04;;;;;;;202.73;187.15;;;31.00;99.90;;;;;;5050214;28;20547;-68
2024/01/28 10:41:33;;;;;;;194.38;180.18;;;31.00;99.90;;;;;;5046918;28;20029;-67
2024/01/28 10:44:08;;;;;;;206.90;191.68;;;31.00;99.90;;;;;;5047979;28;20056;-67
2024/01/28 10:46:38;;;;;;;188.45;175.05;;;31.00;99.90;;;;;;5053736;28;20025;-66
2024/01/28 10:49:06;;;;;;;234.10;214.25;;;31.00;99.90;;;;;;5053976;28;20029;-66
2024/01/28 10:51:35;;;;;;;222.35;203.60;;;30.90;99.90;;;;;;5054155;28;20103;-67
2024/01/28 10:54:04;;;;;;;192.68;177.50;;;30.90;99.90;;;;;;5055178;28;20029;-67
2024/01/28 10:56:33;;;;;;;198.48;183.20;;;30.90;99.90;;;;;;5053427;28;20021;-67
2024/01/28 10:59:00;;;;;;;209.30;192.85;;;30.90;99.90;;;;;;5054003;28;20025;-66
2024/01/28 11:01:29;;;;;;;212.52;195.30;;;30.80;99.90;;;;;;5054551;28;20097;-66
2024/01/28 11:03:57;;;;;;;192.43;176.65;;;30.80;99.90;;;;;;5055098;28;20036;-67
2024/01/28 11:06:27;;;;;;;208.73;190.80;;;30.80;99.90;;;;;;5055454;28;20025;-67
2024/01/28 11:08:57;;;;;;;222.32;203.70;;;30.80;99.90;;;;;;5054401;28;20045;-68
2024/01/28 11:11:24;;;;;;;194.93;180.77;;;30.80;99.90;;;;;;5054114;28;20057;-66
2024/01/28 11:13:51;;;;;;;179.52;165.13;;;30.70;99.90;;;;;;5054901;28;20079;-67
2024/01/28 11:16:19;;;;;;;202.90;185.25;;;30.60;99.90;;;;;;5054884;28;20021;-66
2024/01/28 11:18:57;;;;;;;184.88;169.18;;;30.60;99.90;;;;;;5054970;28;20108;-67
2024/01/28 11:21:27;;;;;;;172.48;157.25;;;30.60;99.90;;;;;;5054297;28;20107;-67
2024/01/28 11:23:54;;;;;;;166.40;152.82;;;30.60;99.90;;;;;;5054778;28;20029;-66
2024/01/28 11:26:23;;;;;;;156.85;144.48;;;30.50;99.90;;;;;;5055267;28;20020;-66
2024/01/28 11:28:52;;;;;;;138.57;127.50;;;30.50;99.90;;;;;;5054894;28;20025;-66
2024/01/28 11:31:21;;;;;;;136.23;124.72;;;30.50;99.90;;;;;;5054889;28;20055;-67
2024/01/28 11:33:47;;;;;;;146.98;134.38;;;30.50;99.90;;;;;;5048252;28;20108;-67
2024/01/28 11:36:21;;;;;;;168.40;155.05;;;30.40;99.90;;;;;;5041588;28;20017;-66
2024/01/28 11:38:55;;;;;;;161.45;147.85;;;30.40;99.90;;;;;;5034867;28;20030;-67
2024/01/28 11:41:24;;;;;;;164.20;151.00;;;30.40;99.90;;;;;;5034761;28;20029;-67
2024/01/28 11:43:50;;;;;;;161.32;147.65;;;30.40;99.90;;;;;;5034561;28;20109;-67
2024/01/28 11:46:17;;;;;;;154.13;140.45;;;30.40;99.90;;;;;;5034614;28;20026;-67
2024/01/28 11:48:43;;;;;;;153.65;140.48;;;30.30;99.90;;;;;;5034540;28;20053;-67
2024/01/28 11:51:10;;;;;;;150.88;137.38;;;30.30;99.90;;;;;;5045761;28;20029;-66
2024/01/28 11:53:36;;;;;;;192.63;174.60;;;30.30;99.90;;;;;;5034492;28;20025;-67
2024/01/28 11:56:11;;;;;;;200.48;180.45;;;30.20;99.90;;;;;;5034599;28;20021;-68
2024/01/28 11:58:38;;;;;;;209.45;189.38;;;30.20;99.90;;;;;;5034400;28;20104;-67
2024/01/28 12:01:05;;;;;;;224.52;201.80;;;30.20;99.90;;;;;;5034679;28;20079;-67
2024/01/28 12:03:31;;;;;;;214.65;194.30;;;30.20;99.90;;;;;;5034319;28;20386;-66
2024/01/28 12:05:58;;;;;;;187.27;169.38;;;30.20;99.90;;;;;;5034205;28;20104;-68
2024/01/28 12:08:26;;;;;;;135.48;123.05;;;30.20;99.90;;;;;;5034007;28;20108;-67
2024/01/28 12:11:03;;;;;;;140.95;128.93;;;30.20;99.90;;;;;;5034444;28;20026;-67
2024/01/28 12:13:31;;;;;;;154.05;140.13;;;30.10;99.90;;;;;;5034044;28;20040;-66